Time;durP1;ratioP1;P1;durP2;ratioP2;P2;SDS_P1;SDS_P2;PMS_P1;PMS_P2;Temp;Humidity;BMP_temperature;BMP_pressure;BME280_temperature;BME280_humidity;BME280_pressure;Samples;Min_cycle;Max_cycle;Signal;HPM_P1;HPM_P2
2023/03/20 00:01:37;;;;;;;5.60;3.30;;;;;;;;;;5044105;28;20020;-69
2023/03/20 00:04:22;;;;;;;5.22;2.92;;;;;;;;;;5038130;28;20025;-70
2023/03/20 00:07:11;;;;;;;5.85;3.65;;;;;;;;;;5047925;28;20064;-71
2023/03/20 00:09:56;;;;;;;7.63;3.43;;;;;;;;;;5033773;28;20056;-69
2023/03/20 00:12:42;;;;;;;5.65;3.38;;;;;;;;;;5047121;28;20024;-73
2023/03/20 00:15:33;;;;;;;8.73;4.07;;;;;;;;;;5046011;28;20104;-69
2023/03/20 00:18:21;;;;;;;6.47;2.97;;;;;;;;;;5047654;28;20024;-72
2023/03/20 00:21:15;;;;;;;6.20;3.70;;;;;;;;;;5017886;28;20056;-69
2023/03/20 00:24:00;;;;;;;5.45;3.30;;;;;;;;;;5036698;28;20029;-69
2023/03/20 00:26:49;;;;;;;7.95;2.90;;;;;;;;;;5047755;28;20036;-67
2023/03/20 00:29:34;;;;;;;5.10;3.03;;;;;;;;;;5048152;28;20020;-69
2023/03/20 00:32:20;;;;;;;7.03;3.10;;;;;;;;;;5036527;28;20029;-69
2023/03/20 00:35:18;;;;;;;6.50;3.05;;;;;;;;;;5046127;28;20037;-76
2023/03/20 00:38:04;;;;;;;5.32;3.65;;;;;;;;;;5027781;28;20029;-70
2023/03/20 00:40:49;;;;;;;7.75;4.63;;;;;;;;;;5045717;28;20094;-73
2023/03/20 00:43:34;;;;;;;10.48;4.40;;;;;;;;;;5047285;28;20074;-71
2023/03/20 00:46:20;;;;;;;7.82;4.32;;;;;;;;;;5033281;28;20769;-72
2023/03/20 00:49:06;;;;;;;5.15;3.88;;;;;;;;;;5043944;28;20507;-71
2023/03/20 00:51:51;;;;;;;4.80;3.20;;;;;;;;;;5042323;28;20544;-70
2023/03/20 00:54:36;;;;;;;4.60;3.25;;;;;;;;;;5045685;28;20067;-72
2023/03/20 00:57:26;;;;;;;8.13;3.97;;;;;;;;;;5047520;28;20468;-65
2023/03/20 01:00:11;;;;;;;;;;;;;;;;;;5035834;28;20674;-64
2023/03/20 01:02:57;;;;;;;6.93;3.47;;;;;;;;;;5047760;28;19943;-66
2023/03/20 01:05:43;;;;;;;7.97;3.58;;;;;;;;;;5052016;28;20072;-66
2023/03/20 01:08:29;;;;;;;4.90;3.35;;;;;;;;;;5045673;28;20067;-66
2023/03/20 01:11:16;;;;;;;8.07;4.28;;;;;;;;;;5030008;28;20492;-69
2023/03/20 01:14:02;;;;;;;5.47;3.03;;;;;;;;;;5040711;28;20032;-73
2023/03/20 01:16:47;;;;;;;7.47;4.57;;;;;;;;;;5048817;28;20148;-71
2023/03/20 01:19:32;;;;;;;7.15;3.42;;;;;;;;;;5049045;28;20115;-71
2023/03/20 01:22:18;;;;;;;5.25;3.40;;;;;;;;;;5028018;28;20548;-71
2023/03/20 01:25:03;;;;;;;3.95;3.03;;;;;;;;;;5035852;28;20095;-72
2023/03/20 01:27:50;;;;;;;4.10;2.60;;;;;;;;;;5048325;28;20056;-72
2023/03/20 01:30:35;;;;;;;5.00;3.20;;;;;;;;;;5049285;28;20055;-75
2023/03/20 01:33:22;;;;;;;5.05;3.05;;;;;;;;;;5036841;28;20037;-69
2023/03/20 01:36:09;;;;;;;6.80;3.33;;;;;;;;;;5051379;28;20102;-69
2023/03/20 01:38:55;;;;;;;9.65;3.47;;;;;;;;;;5042914;28;20116;-68
2023/03/20 01:41:41;;;;;;;5.32;3.00;;;;;;;;;;5042753;28;20365;-68
2023/03/20 01:44:31;;;;;;;4.47;2.50;;;;;;;;;;5037129;28;20061;-68
2023/03/20 01:47:17;;;;;;;8.73;3.47;;;;;;;;;;5035727;28;20037;-69
2023/03/20 01:50:18;;;;;;;3.33;2.42;;;;;;;;;;5039969;28;20558;-65
2023/03/20 01:53:07;;;;;;;3.20;2.53;;;;;;;;;;5050441;28;20550;-64
2023/03/20 01:55:53;;;;;;;4.60;2.40;;;;;;;;;;5049697;28;20037;-66
2023/03/20 01:58:41;;;;;;;6.20;2.55;;;;;;;;;;5040263;28;20029;-65
2023/03/20 02:01:27;;;;;;;3.50;2.40;;;;;;;;;;5045829;28;20036;-64
2023/03/20 02:04:13;;;;;;;3.20;2.35;;;;;;;;;;5039098;28;20061;-65
2023/03/20 02:06:59;;;;;;;3.08;2.08;;;;;;;;;;5030820;28;20420;-70
2023/03/20 02:09:45;;;;;;;3.53;1.95;;;;;;;;;;5034936;28;20451;-71
2023/03/20 02:12:32;;;;;;;2.58;2.25;;;;;;;;;;5046317;28;20439;-72
2023/03/20 02:15:17;;;;;;;2.92;2.15;;;;;;;;;;5049405;28;20108;-71
2023/03/20 02:18:02;;;;;;;4.10;2.10;;;;;;;;;;5038936;28;20025;-71
2023/03/20 02:20:47;;;;;;;3.67;1.73;;;;;;;;;;5029281;28;20039;-71
2023/03/20 02:23:36;;;;;;;7.80;1.98;;;;;;;;;;5043146;28;20017;-71
2023/03/20 02:26:38;;;;;;;4.70;2.15;;;;;;;;;;5044560;28;20127;-70
2023/03/20 02:29:44;;;;;;;3.95;1.65;;;;;;;;;;5047793;28;20365;-72
2023/03/20 02:32:48;;;;;;;4.25;2.13;;;;;;;;;;5047816;28;20045;-73
2023/03/20 02:35:53;;;;;;;4.43;1.90;;;;;;;;;;5038495;28;20020;-71
2023/03/20 02:38:51;;;;;;;3.17;2.08;;;;;;;;;;5045354;28;20028;-74
2023/03/20 02:41:41;;;;;;;4.97;2.40;;;;;;;;;;5043119;28;20028;-73
2023/03/20 02:44:52;;;;;;;3.95;2.15;;;;;;;;;;5048195;28;20446;-76
2023/03/20 02:47:38;;;;;;;3.53;2.30;;;;;;;;;;5041158;28;20507;-69
2023/03/20 02:50:23;;;;;;;5.28;2.28;;;;;;;;;;5034040;28;20488;-69
2023/03/20 02:53:11;;;;;;;3.97;2.42;;;;;;;;;;5043042;28;20487;-67
2023/03/20 02:56:24;;;;;;;2.63;1.85;;;;;;;;;;5039565;28;20107;-71
2023/03/20 02:59:16;;;;;;;3.08;1.90;;;;;;;;;;5048258;28;20037;-68
2023/03/20 03:02:04;;;;;;;3.50;1.95;;;;;;;;;;5044619;28;20032;-71
2023/03/20 03:04:51;;;;;;;2.95;1.50;;;;;;;;;;5038455;28;20116;-68
2023/03/20 03:07:40;;;;;;;2.55;1.48;;;;;;;;;;5043726;28;20502;-74
2023/03/20 03:10:30;;;;;;;4.15;1.45;;;;;;;;;;5037948;28;20026;-71
2023/03/20 03:13:18;;;;;;;2.83;1.50;;;;;;;;;;5032110;28;20036;-72
2023/03/20 03:16:12;;;;;;;5.32;2.00;;;;;;;;;;5047853;28;20029;-72
2023/03/20 03:19:05;;;;;;;2.15;1.50;;;;;;;;;;5042436;28;20567;-74
2023/03/20 03:21:50;;;;;;;1.98;1.65;;;;;;;;;;5034054;28;20108;-75
2023/03/20 03:24:37;;;;;;;4.25;1.90;;;;;;;;;;5039055;28;20036;-74
2023/03/20 03:27:41;;;;;;;1.48;1.20;;;;;;;;;;5038141;28;20048;-74
2023/03/20 03:30:30;;;;;;;2.55;1.27;;;;;;;;;;5029281;28;20029;-74
2023/03/20 03:33:20;;;;;;;1.60;1.50;;;;;;;;;;5030580;28;20036;-74
2023/03/20 03:36:32;;;;;;;2.35;1.02;;;;;;;;;;5040121;28;20459;-73
2023/03/20 03:39:23;;;;;;;3.22;1.38;;;;;;;;;;5033312;28;20498;-73
2023/03/20 03:42:09;;;;;;;3.58;1.30;;;;;;;;;;5027859;28;20029;-71
2023/03/20 03:44:57;;;;;;;3.90;1.15;;;;;;;;;;5022107;28;20053;-70
2023/03/20 03:47:45;;;;;;;2.42;1.25;;;;;;;;;;5037855;28;20021;-70
2023/03/20 03:50:34;;;;;;;1.45;1.15;;;;;;;;;;5044244;28;20033;-70
2023/03/20 03:53:23;;;;;;;1.20;1.10;;;;;;;;;;5048454;28;20031;-69
2023/03/20 03:56:10;;;;;;;1.30;1.20;;;;;;;;;;5047434;28;20275;-71
2023/03/20 03:58:58;;;;;;;1.67;1.20;;;;;;;;;;5047882;28;20047;-71
2023/03/20 04:01:44;;;;;;;4.13;1.30;;;;;;;;;;5028308;28;20032;-73
2023/03/20 04:04:30;;;;;;;1.20;1.10;;;;;;;;;;5037769;28;20116;-72
2023/03/20 04:07:16;;;;;;;2.42;1.00;;;;;;;;;;5027899;28;20030;-73
2023/03/20 04:10:01;;;;;;;1.10;1.00;;;;;;;;;;5030957;28;20541;-71
2023/03/20 04:12:47;;;;;;;2.53;0.98;;;;;;;;;;5029507;28;20028;-72
2023/03/20 04:15:32;;;;;;;3.15;1.00;;;;;;;;;;5029892;28;20029;-73
2023/03/20 04:18:18;;;;;;;3.05;1.40;;;;;;;;;;5041649;28;20026;-75
2023/03/20 04:21:03;;;;;;;2.42;1.10;;;;;;;;;;5037407;28;20109;-74
2023/03/20 04:23:49;;;;;;;2.35;1.52;;;;;;;;;;5028431;28;20116;-75
2023/03/20 04:26:34;;;;;;;2.60;0.90;;;;;;;;;;5037206;28;20055;-75
2023/03/20 04:29:19;;;;;;;2.08;1.10;;;;;;;;;;5028028;28;20476;-74
2023/03/20 04:32:04;;;;;;;2.22;1.10;;;;;;;;;;5033735;28;20074;-75
2023/03/20 04:34:51;;;;;;;2.30;1.27;;;;;;;;;;5037241;28;20036;-74
2023/03/20 04:37:36;;;;;;;1.52;1.10;;;;;;;;;;5047912;28;20120;-75
2023/03/20 04:40:21;;;;;;;2.50;1.10;;;;;;;;;;5031460;28;20025;-74
2023/03/20 04:43:06;;;;;;;3.53;1.00;;;;;;;;;;5030221;28;20533;-75
2023/03/20 04:45:52;;;;;;;1.17;0.95;;;;;;;;;;5035591;28;20067;-75
2023/03/20 04:48:38;;;;;;;2.70;1.17;;;;;;;;;;5046368;28;20076;-74
2023/03/20 04:51:23;;;;;;;2.13;0.82;;;;;;;;;;5040721;28;20029;-73
2023/03/20 04:54:08;;;;;;;2.97;1.20;;;;;;;;;;5047305;28;20029;-72
2023/03/20 04:56:54;;;;;;;1.02;0.80;;;;;;;;;;5039520;28;20483;-66
2023/03/20 04:59:39;;;;;;;2.28;0.90;;;;;;;;;;5041318;28;20459;-66
2023/03/20 05:02:24;;;;;;;7.53;2.22;;;;;;;;;;5035758;28;20021;-66
2023/03/20 05:05:09;;;;;;;1.05;0.88;;;;;;;;;;5041615;28;20031;-66
2023/03/20 05:07:55;;;;;;;3.88;1.00;;;;;;;;;;5034962;28;20075;-64
2023/03/20 05:10:40;;;;;;;1.55;0.80;;;;;;;;;;5044118;28;20025;-66
2023/03/20 05:13:25;;;;;;;1.13;1.00;;;;;;;;;;5041074;28;20021;-71
2023/03/20 05:16:11;;;;;;;2.10;0.95;;;;;;;;;;5047774;28;20044;-71
2023/03/20 05:18:56;;;;;;;6.13;0.98;;;;;;;;;;5048414;28;20099;-71
2023/03/20 05:21:41;;;;;;;2.65;1.00;;;;;;;;;;5023854;28;20029;-69
2023/03/20 05:24:27;;;;;;;4.70;1.00;;;;;;;;;;5037775;28;20025;-70
2023/03/20 05:27:13;;;;;;;1.25;0.90;;;;;;;;;;5016585;28;20303;-74
2023/03/20 05:29:58;;;;;;;2.30;0.98;;;;;;;;;;5043441;28;20047;-67
2023/03/20 05:32:43;;;;;;;2.90;1.00;;;;;;;;;;5043949;28;20168;-71
2023/03/20 05:35:28;;;;;;;2.58;1.10;;;;;;;;;;5029770;28;20051;-69
2023/03/20 05:38:14;;;;;;;2.60;0.90;;;;;;;;;;5041497;28;20087;-71
2023/03/20 05:41:00;;;;;;;1.52;0.93;;;;;;;;;;5046017;28;20033;-70
2023/03/20 05:43:45;;;;;;;2.33;0.90;;;;;;;;;;5034772;28;20090;-70
2023/03/20 05:46:30;;;;;;;0.77;0.77;;;;;;;;;;5038248;28;20045;-70
2023/03/20 05:49:15;;;;;;;2.65;1.00;;;;;;;;;;5046191;28;20098;-72
2023/03/20 05:52:01;;;;;;;2.85;0.88;;;;;;;;;;5049414;28;20029;-73
2023/03/20 05:54:46;;;;;;;1.27;0.90;;;;;;;;;;5036603;28;20037;-71
2023/03/20 05:57:32;;;;;;;1.50;0.88;;;;;;;;;;5045848;28;20127;-71
2023/03/20 06:00:17;;;;;;;8.80;2.35;;;;;;;;;;5027621;28;20521;-71
2023/03/20 06:03:03;;;;;;;3.75;1.20;;;;;;;;;;5055727;28;20029;-72
2023/03/20 06:05:48;;;;;;;2.72;1.42;;;;;;;;;;5025904;28;20044;-64
2023/03/20 06:08:35;;;;;;;1.55;1.20;;;;;;;;;;5050464;28;20052;-72
2023/03/20 06:11:20;;;;;;;3.33;1.50;;;;;;;;;;5040303;28;20029;-72
2023/03/20 06:14:05;;;;;;;5.55;1.25;;;;;;;;;;5046076;28;20024;-72
2023/03/20 06:16:52;;;;;;;1.13;0.90;;;;;;;;;;5040868;28;20036;-72
2023/03/20 06:19:38;;;;;;;1.77;1.10;;;;;;;;;;5029168;28;20023;-72
2023/03/20 06:22:23;;;;;;;1.67;1.08;;;;;;;;;;5032649;28;20027;-73
2023/03/20 06:25:08;;;;;;;2.45;1.27;;;;;;;;;;5020920;28;20043;-72
2023/03/20 06:27:54;;;;;;;4.60;1.80;;;;;;;;;;5040652;28;20024;-66
2023/03/20 06:30:39;;;;;;;1.75;1.20;;;;;;;;;;5039143;28;20037;-67
2023/03/20 06:33:24;;;;;;;3.05;0.90;;;;;;;;;;5044220;28;20032;-67
2023/03/20 06:36:10;;;;;;;2.13;1.20;;;;;;;;;;5039390;28;20740;-67
2023/03/20 06:38:55;;;;;;;1.80;1.08;;;;;;;;;;5038495;28;20056;-67
2023/03/20 06:41:41;;;;;;;1.90;1.02;;;;;;;;;;5037337;28;20026;-67
2023/03/20 06:44:26;;;;;;;2.45;1.00;;;;;;;;;;5049652;28;20053;-73
2023/03/20 06:47:11;;;;;;;2.10;1.35;;;;;;;;;;5022089;28;20041;-73
2023/03/20 06:49:56;;;;;;;2.53;1.40;;;;;;;;;;5037740;28;20036;-72
2023/03/20 06:52:42;;;;;;;4.97;1.33;;;;;;;;;;5040669;28;20029;-72
2023/03/20 06:55:27;;;;;;;3.35;1.63;;;;;;;;;;5036351;28;20061;-73
2023/03/20 06:58:12;;;;;;;2.25;1.83;;;;;;;;;;5033843;28;20051;-73
2023/03/20 07:00:57;;;;;;;3.38;1.83;;;;;;;;;;5047077;28;20028;-67
2023/03/20 07:03:43;;;;;;;3.75;1.42;;;;;;;;;;5050176;28;20471;-66
2023/03/20 07:06:29;;;;;;;3.17;1.58;;;;;;;;;;5031564;28;20047;-74
2023/03/20 07:09:16;;;;;;;6.13;1.80;;;;;;;;;;5021760;28;20041;-73
2023/03/20 07:12:01;;;;;;;3.22;1.95;;;;;;;;;;5030525;28;20575;-72
2023/03/20 07:14:46;;;;;;;1.98;1.25;;;;;;;;;;5038863;28;20433;-70
2023/03/20 07:17:32;;;;;;;2.83;1.30;;;;;;;;;;5047900;28;20103;-70
2023/03/20 07:20:17;;;;;;;2.35;1.27;;;;;;;;;;5025442;28;20032;-64
2023/03/20 07:23:02;;;;;;;3.03;1.80;;;;;;;;;;5028239;28;20045;-68
2023/03/20 07:25:48;;;;;;;2.63;1.35;;;;;;;;;;5041831;28;20628;-65
2023/03/20 07:28:33;;;;;;;3.85;1.30;;;;;;;;;;5041018;28;20183;-65
2023/03/20 07:31:19;;;;;;;1.30;1.20;;;;;;;;;;5042881;28;20160;-69
2023/03/20 07:34:05;;;;;;;2.42;1.52;;;;;;;;;;5042790;28;20114;-66
2023/03/20 07:36:50;;;;;;;2.33;1.33;;;;;;;;;;5035807;28;20033;-68
2023/03/20 07:39:35;;;;;;;2.88;1.20;;;;;;;;;;5041810;28;20031;-72
2023/03/20 07:42:21;;;;;;;5.03;1.60;;;;;;;;;;5034970;28;20037;-71
2023/03/20 07:45:06;;;;;;;1.63;1.20;;;;;;;;;;5032875;28;20085;-72
2023/03/20 07:47:52;;;;;;;2.13;1.25;;;;;;;;;;5033836;28;20092;-70
2023/03/20 07:50:37;;;;;;;2.58;1.15;;;;;;;;;;5034327;28;20040;-71
2023/03/20 07:53:22;;;;;;;1.65;1.02;;;;;;;;;;5035516;28;20082;-73
2023/03/20 07:56:07;;;;;;;1.48;1.20;;;;;;;;;;5039333;28;20033;-72
2023/03/20 07:58:53;;;;;;;1.20;0.90;;;;;;;;;;5037096;28;20033;-73
2023/03/20 08:01:38;;;;;;;1.75;1.30;;;;;;;;;;5041032;28;20483;-75
2023/03/20 08:04:23;;;;;;;1.85;1.10;;;;;;;;;;5046591;28;20031;-73
2023/03/20 08:07:08;;;;;;;1.75;1.20;;;;;;;;;;5036574;28;20029;-75
2023/03/20 08:09:54;;;;;;;4.07;1.30;;;;;;;;;;5040231;28;20375;-73
2023/03/20 08:12:39;;;;;;;3.60;1.35;;;;;;;;;;5039844;28;20085;-74
2023/03/20 08:15:25;;;;;;;1.38;1.20;;;;;;;;;;5032419;28;20074;-72
2023/03/20 08:18:10;;;;;;;2.03;1.10;;;;;;;;;;5047272;28;20399;-67
2023/03/20 08:20:56;;;;;;;2.50;1.25;;;;;;;;;;5034764;28;20029;-68
2023/03/20 08:23:41;;;;;;;3.17;1.23;;;;;;;;;;5038112;28;20033;-68
2023/03/20 08:26:26;;;;;;;18.35;4.15;;;;;;;;;;5041148;28;20029;-67
2023/03/20 08:29:11;;;;;;;5.72;1.77;;;;;;;;;;5038617;28;20014;-70
2023/03/20 08:31:56;;;;;;;3.55;1.40;;;;;;;;;;5035975;28;20024;-67
2023/03/20 08:34:42;;;;;;;4.63;1.65;;;;;;;;;;5038461;28;20067;-72
2023/03/20 08:37:27;;;;;;;1.25;1.00;;;;;;;;;;5015484;28;20484;-73
2023/03/20 08:40:12;;;;;;;2.33;1.50;;;;;;;;;;5038300;28;20471;-71
2023/03/20 08:42:58;;;;;;;4.57;1.27;;;;;;;;;;5038727;28;20078;-71
2023/03/20 08:45:43;;;;;;;1.60;1.17;;;;;;;;;;5034888;28;20053;-71
2023/03/20 08:48:28;;;;;;;2.00;1.40;;;;;;;;;;5035473;28;20026;-71
2023/03/20 08:51:13;;;;;;;2.00;0.90;;;;;;;;;;5042465;28;20126;-66
2023/03/20 08:53:59;;;;;;;6.40;1.38;;;;;;;;;;5037594;28;20143;-66
2023/03/20 08:56:44;;;;;;;1.02;1.00;;;;;;;;;;5034469;28;20035;-74
2023/03/20 08:59:30;;;;;;;3.28;1.23;;;;;;;;;;5036572;28;20025;-72
2023/03/20 09:02:15;;;;;;;4.22;1.48;;;;;;;;;;5039655;28;20044;-71
2023/03/20 09:05:00;;;;;;;1.48;1.20;;;;;;;;;;5033612;28;20179;-72
2023/03/20 09:07:46;;;;;;;1.67;1.00;;;;;;;;;;5043023;28;20033;-70
2023/03/20 09:10:33;;;;;;;1.27;1.00;;;;;;;;;;5032010;28;20024;-66
2023/03/20 09:13:18;;;;;;;3.08;1.15;;;;;;;;;;5036198;28;20115;-74
2023/03/20 09:16:04;;;;;;;2.00;1.05;;;;;;;;;;5028972;28;20048;-73
2023/03/20 09:18:49;;;;;;;2.30;1.05;;;;;;;;;;5044650;28;20110;-74
2023/03/20 09:21:34;;;;;;;2.25;1.45;;;;;;;;;;5034628;28;20392;-74
2023/03/20 09:24:19;;;;;;;2.53;1.10;;;;;;;;;;5036660;28;20026;-74
2023/03/20 09:27:05;;;;;;;3.20;1.48;;;;;;;;;;5034625;28;20717;-75
2023/03/20 09:29:50;;;;;;;1.65;1.40;;;;;;;;;;5043235;28;20025;-67
2023/03/20 09:32:36;;;;;;;1.83;1.20;;;;;;;;;;5045425;28;20072;-65
2023/03/20 09:35:21;;;;;;;3.45;1.20;;;;;;;;;;5034126;28;20108;-66
2023/03/20 09:38:07;;;;;;;2.42;1.42;;;;;;;;;;5039653;28;20021;-66
2023/03/20 09:40:53;;;;;;;2.92;1.48;;;;;;;;;;5034553;28;20108;-66
2023/03/20 09:44:11;;;;;;;3.08;1.50;;;;;;;;;;5046601;28;20526;-65
2023/03/20 09:47:09;;;;;;;4.47;1.58;;;;;;;;;;5039059;28;20098;-71
2023/03/20 09:50:11;;;;;;;3.05;1.40;;;;;;;;;;5040067;28;20116;-68
2023/03/20 09:52:56;;;;;;;2.35;1.25;;;;;;;;;;5030770;28;20205;-71
2023/03/20 09:55:42;;;;;;;3.33;1.63;;;;;;;;;;5040306;28;20029;-68
2023/03/20 09:58:32;;;;;;;2.05;1.58;;;;;;;;;;5037299;28;20025;-67
2023/03/20 10:01:19;;;;;;;1.98;1.65;;;;;;;;;;5046584;28;20051;-68
2023/03/20 10:04:09;;;;;;;2.60;1.58;;;;;;;;;;5034759;28;20421;-67
2023/03/20 10:06:54;;;;;;;2.40;1.60;;;;;;;;;;5035220;28;20427;-76
2023/03/20 10:09:40;;;;;;;4.40;1.65;;;;;;;;;;5037860;28;20524;-72
2023/03/20 10:12:39;;;;;;;1.90;1.30;;;;;;;;;;5043423;28;20033;-72
2023/03/20 10:15:34;;;;;;;2.78;1.58;;;;;;;;;;5033093;28;20080;-73
2023/03/20 10:18:23;;;;;;;4.45;1.80;;;;;;;;;;5039804;28;20053;-72
2023/03/20 10:21:17;;;;;;;5.28;1.85;;;;;;;;;;5038326;28;20032;-71
2023/03/20 10:24:03;;;;;;;2.35;1.38;;;;;;;;;;5033364;28;20036;-66
2023/03/20 10:26:51;;;;;;;2.25;1.55;;;;;;;;;;5035229;28;20548;-72
2023/03/20 10:29:45;;;;;;;1.73;1.27;;;;;;;;;;5039542;28;20056;-73
2023/03/20 10:32:33;;;;;;;1.80;1.30;;;;;;;;;;5040926;28;20626;-73
2023/03/20 10:35:25;;;;;;;2.05;1.65;;;;;;;;;;5043742;28;20124;-74
2023/03/20 10:38:13;;;;;;;1.88;1.05;;;;;;;;;;5036290;28;20032;-74
2023/03/20 10:40:58;;;;;;;3.30;1.42;;;;;;;;;;5038374;28;20475;-72
2023/03/20 10:43:45;;;;;;;1.48;1.20;;;;;;;;;;5044318;28;20041;-72
2023/03/20 10:46:41;;;;;;;1.13;1.05;;;;;;;;;;5019128;28;20413;-69
2023/03/20 10:49:41;;;;;;;3.30;1.75;;;;;;;;;;5036207;28;20133;-68
2023/03/20 10:52:31;;;;;;;2.88;1.48;;;;;;;;;;5038391;28;20041;-68
2023/03/20 10:55:22;;;;;;;2.00;1.13;;;;;;;;;;5039004;28;20037;-69
2023/03/20 10:58:13;;;;;;;2.38;1.65;;;;;;;;;;5039241;28;20032;-68
2023/03/20 11:00:59;;;;;;;2.20;1.60;;;;;;;;;;5023885;28;20090;-70
2023/03/20 11:03:44;;;;;;;2.53;1.40;;;;;;;;;;5053641;28;20033;-73
2023/03/20 11:06:32;;;;;;;4.50;1.50;;;;;;;;;;5039367;28;20456;-72
2023/03/20 11:09:18;;;;;;;1.77;1.15;;;;;;;;;;5031111;28;20061;-73
2023/03/20 11:12:04;;;;;;;3.33;1.48;;;;;;;;;;5036416;28;20516;-72
2023/03/20 11:14:50;;;;;;;1.42;1.20;;;;;;;;;;5035809;28;20387;-74
2023/03/20 11:17:35;;;;;;;3.28;1.48;;;;;;;;;;5045990;28;20043;-73
2023/03/20 11:20:20;;;;;;;3.67;1.83;;;;;;;;;;5032226;28;20392;-65
2023/03/20 11:23:09;;;;;;;1.60;1.25;;;;;;;;;;5035829;28;20484;-74
2023/03/20 11:25:55;;;;;;;2.30;1.33;;;;;;;;;;5037874;28;20040;-71
2023/03/20 11:28:55;;;;;;;2.67;1.88;;;;;;;;;;5034659;28;20021;-73
2023/03/20 11:31:40;;;;;;;5.18;2.50;;;;;;;;;;5034897;28;20067;-72
2023/03/20 11:34:28;;;;;;;4.65;2.65;;;;;;;;;;5043308;28;20029;-71
2023/03/20 11:37:22;;;;;;;7.57;3.33;;;;;;;;;;5035171;28;20608;-72
2023/03/20 11:40:16;;;;;;;6.13;3.08;;;;;;;;;;5037812;28;20046;-71
2023/03/20 11:43:01;;;;;;;5.65;2.88;;;;;;;;;;5040475;28;20123;-72
2023/03/20 11:45:49;;;;;;;4.47;3.00;;;;;;;;;;5033586;28;20052;-73
2023/03/20 11:48:38;;;;;;;7.68;3.28;;;;;;;;;;5041144;28;20074;-74
2023/03/20 11:51:24;;;;;;;;;;;;;;;;;;5054816;28;20039;-72
2023/03/20 11:54:14;;;;;;;6.53;3.65;;;;;;;;;;5043838;28;19974;-72
2023/03/20 11:57:00;;;;;;;5.78;3.30;;;;;;;;;;5055753;28;20028;-68
2023/03/20 11:59:45;;;;;;;5.43;3.38;;;;;;;;;;5055842;28;20051;-72
2023/03/20 12:02:31;;;;;;;5.57;3.58;;;;;;;;;;5043047;28;20033;-71
2023/03/20 12:05:38;;;;;;;4.65;2.88;;;;;;;;;;5033653;28;21459;-72
2023/03/20 12:08:25;;;;;;;6.47;3.00;;;;;;;;;;5039661;28;20571;-72
2023/03/20 12:11:20;;;;;;;4.22;3.05;;;;;;;;;;5033085;28;20033;-73
2023/03/20 12:14:09;;;;;;;4.57;2.72;;;;;;;;;;5034294;28;20029;-66
2023/03/20 12:17:01;;;;;;;6.77;3.20;;;;;;;;;;5030601;28;20033;-67
2023/03/20 12:19:48;;;;;;;6.13;3.28;;;;;;;;;;5029026;28;20287;-64
2023/03/20 12:22:36;;;;;;;8.70;4.03;;;;;;;;;;5036485;28;20021;-63
2023/03/20 12:25:26;;;;;;;5.10;2.97;;;;;;;;;;5033809;28;20033;-64
2023/03/20 12:28:27;;;;;;;5.00;3.25;;;;;;;;;;5033632;28;20555;-64
2023/03/20 12:31:18;;;;;;;4.28;3.15;;;;;;;;;;5034122;28;20488;-63
2023/03/20 12:34:22;;;;;;;5.07;3.00;;;;;;;;;;5039836;28;20102;-70
2023/03/20 12:37:12;;;;;;;5.75;3.13;;;;;;;;;;5025776;28;20032;-73
2023/03/20 12:39:58;;;;;;;;;;;;;;;;;;5040447;28;20033;-73
2023/03/20 12:42:55;;;;;;;7.70;2.90;;;;;;;;;;5030004;28;19913;-73
2023/03/20 12:45:55;;;;;;;6.10;2.80;;;;;;;;;;5032568;28;20044;-75
2023/03/20 12:48:49;;;;;;;3.72;2.25;;;;;;;;;;5046141;28;20403;-73
2023/03/20 12:51:37;;;;;;;4.30;2.75;;;;;;;;;;5038028;28;20033;-76
2023/03/20 12:54:45;;;;;;;4.30;2.45;;;;;;;;;;5032676;28;20028;-72
2023/03/20 12:57:42;;;;;;;5.85;3.13;;;;;;;;;;5023473;28;20037;-72
2023/03/20 13:00:32;;;;;;;5.50;2.97;;;;;;;;;;5034524;28;20021;-72
2023/03/20 13:03:40;;;;;;;4.50;3.05;;;;;;;;;;5037670;28;20026;-70
2023/03/20 13:06:48;;;;;;;5.80;3.03;;;;;;;;;;5030159;28;20563;-71
2023/03/20 13:09:41;;;;;;;5.88;3.05;;;;;;;;;;5027090;28;20056;-72
2023/03/20 13:12:29;;;;;;;5.47;2.72;;;;;;;;;;5026542;28;20018;-71
2023/03/20 13:15:17;;;;;;;3.72;2.67;;;;;;;;;;5026808;28;20020;-73
2023/03/20 13:18:13;;;;;;;5.30;3.22;;;;;;;;;;5043176;28;20115;-77
2023/03/20 13:21:00;;;;;;;4.65;3.13;;;;;;;;;;5032490;28;20033;-73
2023/03/20 13:23:55;;;;;;;6.93;3.78;;;;;;;;;;5031630;28;20088;-75
2023/03/20 13:26:45;;;;;;;8.35;4.28;;;;;;;;;;5043446;28;20103;-72
2023/03/20 13:29:34;;;;;;;6.43;3.80;;;;;;;;;;5043071;28;20028;-64
2023/03/20 13:32:19;;;;;;;5.90;2.83;;;;;;;;;;5024641;28;20391;-63
2023/03/20 13:35:22;;;;;;;5.57;3.03;;;;;;;;;;5049541;28;20060;-64
2023/03/20 13:38:13;;;;;;;10.15;3.65;;;;;;;;;;5035797;28;20052;-64
2023/03/20 13:41:08;;;;;;;7.28;3.90;;;;;;;;;;5045657;28;20029;-66
2023/03/20 13:43:59;;;;;;;5.03;3.08;;;;;;;;;;5047217;28;20060;-65
2023/03/20 13:46:57;;;;;;;5.13;2.80;;;;;;;;;;5036966;28;20040;-72
2023/03/20 13:49:52;;;;;;;5.15;2.92;;;;;;;;;;5031363;28;20028;-64
2023/03/20 13:52:51;;;;;;;4.55;2.78;;;;;;;;;;5035374;28;20025;-64
2023/03/20 13:55:39;;;;;;;5.60;3.00;;;;;;;;;;5039494;28;20364;-65
2023/03/20 13:58:24;;;;;;;7.75;3.63;;;;;;;;;;5045756;28;20028;-65
2023/03/20 14:01:27;;;;;;;7.03;3.75;;;;;;;;;;5039315;28;20033;-65
2023/03/20 14:04:21;;;;;;;5.13;3.13;;;;;;;;;;5034502;28;20041;-72
2023/03/20 14:07:26;;;;;;;5.80;2.40;;;;;;;;;;5033919;28;20076;-72
2023/03/20 14:10:21;;;;;;;5.90;3.30;;;;;;;;;;5041247;28;20171;-71
2023/03/20 14:13:11;;;;;;;5.10;2.58;;;;;;;;;;5041989;28;20070;-72
2023/03/20 14:15:59;;;;;;;4.22;2.47;;;;;;;;;;5022541;28;20025;-71
2023/03/20 14:18:47;;;;;;;5.72;3.08;;;;;;;;;;5035690;28;20115;-71
2023/03/20 14:21:33;;;;;;;6.05;2.75;;;;;;;;;;5043452;28;20074;-70
2023/03/20 14:24:19;;;;;;;4.50;2.80;;;;;;;;;;5036729;28;20613;-62
2023/03/20 14:27:05;;;;;;;3.90;2.60;;;;;;;;;;5044505;28;20035;-74
2023/03/20 14:29:50;;;;;;;4.72;2.40;;;;;;;;;;5045593;28;20051;-74
2023/03/20 14:32:50;;;;;;;7.40;2.38;;;;;;;;;;5045306;28;20021;-73
2023/03/20 14:35:36;;;;;;;3.78;2.05;;;;;;;;;;5047385;28;20082;-73
2023/03/20 14:38:27;;;;;;;4.10;2.08;;;;;;;;;;5034163;28;20589;-72
2023/03/20 14:41:19;;;;;;;3.40;2.10;;;;;;;;;;5038556;28;20029;-61
2023/03/20 14:44:07;;;;;;;5.80;2.60;;;;;;;;;;5034786;28;20037;-74
2023/03/20 14:47:00;;;;;;;6.78;2.55;;;;;;;;;;5036969;28;20037;-63
2023/03/20 14:50:06;;;;;;;4.68;2.17;;;;;;;;;;5019179;28;20029;-63
2023/03/20 14:52:59;;;;;;;4.13;1.88;;;;;;;;;;5033188;28;20545;-65
2023/03/20 14:55:48;;;;;;;4.47;2.47;;;;;;;;;;5052058;28;20409;-63
2023/03/20 14:58:33;;;;;;;3.67;2.35;;;;;;;;;;5040360;28;20375;-65
2023/03/20 15:01:19;;;;;;;3.42;1.85;;;;;;;;;;5030636;28;20036;-72
2023/03/20 15:04:06;;;;;;;7.95;2.80;;;;;;;;;;5041208;28;20034;-64
2023/03/20 15:06:59;;;;;;;5.25;2.33;;;;;;;;;;5034062;28;20033;-64
2023/03/20 15:09:46;;;;;;;8.65;2.60;;;;;;;;;;5033897;28;20032;-66
2023/03/20 15:12:36;;;;;;;4.80;2.75;;;;;;;;;;5027293;28;20120;-66
2023/03/20 15:15:21;;;;;;;;;;;;;;;;;;5034040;28;20048;-64
2023/03/20 15:18:10;;;;;;;4.60;2.50;;;;;;;;;;5031572;28;19909;-67
2023/03/20 15:20:56;;;;;;;6.38;3.13;;;;;;;;;;5034965;28;20028;-75
2023/03/20 15:23:42;;;;;;;5.82;2.85;;;;;;;;;;5024940;28;20032;-66
2023/03/20 15:26:29;;;;;;;7.18;2.20;;;;;;;;;;5035023;28;20037;-70
2023/03/20 15:29:15;;;;;;;5.80;2.58;;;;;;;;;;5038658;28;20035;-67
2023/03/20 15:32:01;;;;;;;4.63;2.15;;;;;;;;;;5027112;28;20040;-67
2023/03/20 15:34:47;;;;;;;4.88;2.60;;;;;;;;;;5033649;28;20052;-68
2023/03/20 15:37:33;;;;;;;4.38;2.50;;;;;;;;;;5033169;28;20029;-69
2023/03/20 15:40:24;;;;;;;3.38;2.30;;;;;;;;;;5042464;28;20028;-72
2023/03/20 15:43:12;;;;;;;5.68;1.90;;;;;;;;;;5037991;28;20064;-72
2023/03/20 15:45:57;;;;;;;4.32;2.03;;;;;;;;;;5035042;28;20507;-72
2023/03/20 15:48:47;;;;;;;1.75;1.20;;;;;;;;;;5039832;28;20440;-74
2023/03/20 15:51:33;;;;;;;1.65;1.27;;;;;;;;;;5056210;28;20051;-71
2023/03/20 15:54:19;;;;;;;1.30;1.20;;;;;;;;;;5038623;28;20060;-73
2023/03/20 15:57:04;;;;;;;3.08;1.00;;;;;;;;;;5038466;28;20036;-67
2023/03/20 15:59:50;;;;;;;2.90;1.02;;;;;;;;;;5042511;28;20029;-71
2023/03/20 16:02:36;;;;;;;1.58;0.90;;;;;;;;;;5030749;28;20106;-70
2023/03/20 16:05:23;;;;;;;1.60;1.25;;;;;;;;;;5034134;28;20087;-76
2023/03/20 16:08:13;;;;;;;2.47;1.23;;;;;;;;;;5022819;28;20045;-72
2023/03/20 16:11:00;;;;;;;1.70;0.90;;;;;;;;;;5045049;28;20032;-73
2023/03/20 16:13:46;;;;;;;1.55;1.08;;;;;;;;;;5038080;28;20531;-72
2023/03/20 16:16:36;;;;;;;1.02;0.90;;;;;;;;;;5045110;28;20150;-67
2023/03/20 16:19:22;;;;;;;2.83;1.13;;;;;;;;;;5051560;28;20033;-68
2023/03/20 16:22:26;;;;;;;4.00;2.05;;;;;;;;;;5046546;28;20163;-66
2023/03/20 16:25:13;;;;;;;2.10;1.40;;;;;;;;;;5046233;28;20518;-66
2023/03/20 16:27:58;;;;;;;1.35;1.02;;;;;;;;;;5038336;28;20036;-66
2023/03/20 16:30:43;;;;;;;3.40;1.33;;;;;;;;;;5046075;28;20774;-68
2023/03/20 16:33:29;;;;;;;2.33;1.15;;;;;;;;;;5051811;28;20036;-73
2023/03/20 16:36:17;;;;;;;1.25;1.02;;;;;;;;;;5038816;28;20549;-68
2023/03/20 16:39:05;;;;;;;3.42;1.48;;;;;;;;;;5036316;28;20036;-70
2023/03/20 16:41:55;;;;;;;2.30;1.30;;;;;;;;;;5047679;28;20028;-70
2023/03/20 16:44:40;;;;;;;;;;;;;;;;;;5046013;28;20049;-68
2023/03/20 16:47:34;;;;;;;2.28;1.02;;;;;;;;;;5041080;28;19917;-70
2023/03/20 16:50:32;;;;;;;2.88;1.20;;;;;;;;;;5039035;28;20143;-65
2023/03/20 16:53:19;;;;;;;2.15;1.35;;;;;;;;;;5043678;28;20029;-72